sensor_id;sensor_type;location;lat;lon;timestamp;P1;durP1;ratioP1;P2;durP2;ratioP2
79330;SDS011;68797;49.782;19.054;2023-06-05T00:00:16;11.23;;;4.82;;
79330;SDS011;68797;49.782;19.054;2023-06-05T00:03:02;8.73;;;4.60;;
79330;SDS011;68797;49.782;19.054;2023-06-05T00:05:28;7.20;;;4.35;;
79330;SDS011;68797;49.782;19.054;2023-06-05T00:07:55;8.20;;;4.43;;
79330;SDS011;68797;49.782;19.054;2023-06-05T00:10:21;8.57;;;5.18;;
79330;SDS011;68797;49.782;19.054;2023-06-05T00:12:48;12.18;;;5.55;;
79330;SDS011;68797;49.782;19.054;2023-06-05T00:15:14;11.63;;;6.22;;
79330;SDS011;68797;49.782;19.054;2023-06-05T00:17:40;10.65;;;5.47;;
79330;SDS011;68797;49.782;19.054;2023-06-05T00:20:07;9.40;;;5.93;;
79330;SDS011;68797;49.782;19.054;2023-06-05T00:22:37;12.13;;;6.28;;
79330;SDS011;68797;49.782;19.054;2023-06-05T00:25:05;11.40;;;6.00;;
79330;SDS011;68797;49.782;19.054;2023-06-05T00:27:31;11.88;;;6.05;;
79330;SDS011;68797;49.782;19.054;2023-06-05T00:29:58;11.57;;;6.32;;
79330;SDS011;68797;49.782;19.054;2023-06-05T00:32:24;11.32;;;5.95;;
79330;SDS011;68797;49.782;19.054;2023-06-05T00:34:51;13.45;;;6.70;;
79330;SDS011;68797;49.782;19.054;2023-06-05T00:37:17;11.10;;;6.95;;
79330;SDS011;68797;49.782;19.054;2023-06-05T00:39:44;12.73;;;6.32;;
79330;SDS011;68797;49.782;19.054;2023-06-05T00:42:10;10.80;;;6.00;;
79330;SDS011;68797;49.782;19.054;2023-06-05T00:44:39;14.30;;;6.57;;
79330;SDS011;68797;49.782;19.054;2023-06-05T00:47:06;9.43;;;5.97;;
79330;SDS011;68797;49.782;19.054;2023-06-05T00:49:32;9.18;;;5.47;;
79330;SDS011;68797;49.782;19.054;2023-06-05T00:51:59;12.48;;;5.88;;
79330;SDS011;68797;49.782;19.054;2023-06-05T00:54:26;11.77;;;5.90;;
79330;SDS011;68797;49.782;19.054;2023-06-05T00:56:53;8.20;;;5.57;;
79330;SDS011;68797;49.782;19.054;2023-06-05T00:59:20;11.27;;;5.88;;
79330;SDS011;68797;49.782;19.054;2023-06-05T01:01:47;9.82;;;5.78;;
79330;SDS011;68797;49.782;19.054;2023-06-05T01:04:15;10.55;;;4.95;;
79330;SDS011;68797;49.782;19.054;2023-06-05T01:06:41;8.43;;;5.18;;
79330;SDS011;68797;49.782;19.054;2023-06-05T01:11:58;7.65;;;5.10;;
79330;SDS011;68797;49.782;19.054;2023-06-05T01:14:36;9.38;;;5.05;;
79330;SDS011;68797;49.782;19.054;2023-06-05T01:17:07;8.38;;;4.95;;
79330;SDS011;68797;49.782;19.054;2023-06-05T01:19:35;7.65;;;4.72;;
79330;SDS011;68797;49.782;19.054;2023-06-05T01:22:01;9.25;;;4.80;;
79330;SDS011;68797;49.782;19.054;2023-06-05T01:24:28;8.57;;;5.15;;
79330;SDS011;68797;49.782;19.054;2023-06-05T01:32:01;9.35;;;5.10;;
79330;SDS011;68797;49.782;19.054;2023-06-05T01:34:33;8.27;;;4.68;;
79330;SDS011;68797;49.782;19.054;2023-06-05T01:37:03;10.05;;;5.10;;
79330;SDS011;68797;49.782;19.054;2023-06-05T01:39:30;10.07;;;5.53;;
79330;SDS011;68797;49.782;19.054;2023-06-05T01:41:56;12.13;;;6.30;;
79330;SDS011;68797;49.782;19.054;2023-06-05T01:44:25;11.90;;;5.43;;
79330;SDS011;68797;49.782;19.054;2023-06-05T01:46:52;11.82;;;5.93;;
79330;SDS011;68797;49.782;19.054;2023-06-05T01:49:19;10.20;;;5.90;;
79330;SDS011;68797;49.782;19.054;2023-06-05T01:51:46;9.77;;;5.38;;
79330;SDS011;68797;49.782;19.054;2023-06-05T01:54:12;10.23;;;5.53;;
79330;SDS011;68797;49.782;19.054;2023-06-05T01:56:41;9.98;;;5.22;;
79330;SDS011;68797;49.782;19.054;2023-06-05T01:59:09;9.55;;;5.35;;
79330;SDS011;68797;49.782;19.054;2023-06-05T02:01:35;12.77;;;5.68;;
79330;SDS011;68797;49.782;19.054;2023-06-05T02:04:02;11.75;;;6.00;;
79330;SDS011;68797;49.782;19.054;2023-06-05T02:06:34;9.15;;;4.95;;
79330;SDS011;68797;49.782;19.054;2023-06-05T02:09:11;9.38;;;5.30;;
79330;SDS011;68797;49.782;19.054;2023-06-05T02:11:38;8.52;;;5.82;;
79330;SDS011;68797;49.782;19.054;2023-06-05T02:14:06;10.77;;;5.10;;
79330;SDS011;68797;49.782;19.054;2023-06-05T02:16:32;9.75;;;5.57;;
79330;SDS011;68797;49.782;19.054;2023-06-05T02:18:59;10.23;;;5.43;;
79330;SDS011;68797;49.782;19.054;2023-06-05T02:21:29;9.63;;;5.75;;
79330;SDS011;68797;49.782;19.054;2023-06-05T02:24:00;8.85;;;4.95;;
79330;SDS011;68797;49.782;19.054;2023-06-05T02:26:26;9.68;;;6.15;;
79330;SDS011;68797;49.782;19.054;2023-06-05T02:28:55;8.73;;;5.70;;
79330;SDS011;68797;49.782;19.054;2023-06-05T02:31:23;10.40;;;5.45;;
79330;SDS011;68797;49.782;19.054;2023-06-05T02:33:52;9.35;;;5.32;;
79330;SDS011;68797;49.782;19.054;2023-06-05T02:36:19;11.05;;;5.70;;
79330;SDS011;68797;49.782;19.054;2023-06-05T02:38:46;10.13;;;5.00;;
79330;SDS011;68797;49.782;19.054;2023-06-05T02:41:16;8.45;;;5.03;;
79330;SDS011;68797;49.782;19.054;2023-06-05T02:43:43;8.52;;;5.00;;
79330;SDS011;68797;49.782;19.054;2023-06-05T02:46:10;8.18;;;5.30;;
79330;SDS011;68797;49.782;19.054;2023-06-05T02:48:38;7.50;;;4.80;;
79330;SDS011;68797;49.782;19.054;2023-06-05T02:51:04;7.70;;;4.32;;
79330;SDS011;68797;49.782;19.054;2023-06-05T02:53:33;7.22;;;4.65;;
79330;SDS011;68797;49.782;19.054;2023-06-05T02:55:59;9.45;;;5.28;;
79330;SDS011;68797;49.782;19.054;2023-06-05T02:58:29;9.32;;;4.55;;
79330;SDS011;68797;49.782;19.054;2023-06-05T03:00:57;10.35;;;4.90;;
79330;SDS011;68797;49.782;19.054;2023-06-05T03:03:31;8.35;;;4.30;;
79330;SDS011;68797;49.782;19.054;2023-06-05T03:05:59;7.65;;;4.78;;
79330;SDS011;68797;49.782;19.054;2023-06-05T03:08:36;12.73;;;5.20;;
79330;SDS011;68797;49.782;19.054;2023-06-05T03:11:04;8.85;;;5.20;;
79330;SDS011;68797;49.782;19.054;2023-06-05T03:13:31;8.35;;;4.28;;
79330;SDS011;68797;49.782;19.054;2023-06-05T03:15:58;8.82;;;5.25;;
79330;SDS011;68797;49.782;19.054;2023-06-05T03:18:30;10.35;;;4.95;;
79330;SDS011;68797;49.782;19.054;2023-06-05T03:20:59;11.23;;;5.55;;
79330;SDS011;68797;49.782;19.054;2023-06-05T03:25:54;8.57;;;4.55;;
79330;SDS011;68797;49.782;19.054;2023-06-05T03:28:22;7.28;;;4.50;;
79330;SDS011;68797;49.782;19.054;2023-06-05T03:30:50;11.23;;;4.90;;
79330;SDS011;68797;49.782;19.054;2023-06-05T03:33:19;9.00;;;4.68;;
79330;SDS011;68797;49.782;19.054;2023-06-05T03:35:48;7.25;;;4.03;;
79330;SDS011;68797;49.782;19.054;2023-06-05T03:38:15;6.43;;;3.83;;
79330;SDS011;68797;49.782;19.054;2023-06-05T03:40:43;7.28;;;4.70;;
79330;SDS011;68797;49.782;19.054;2023-06-05T03:43:12;6.05;;;4.57;;
79330;SDS011;68797;49.782;19.054;2023-06-05T03:45:39;7.28;;;4.47;;
79330;SDS011;68797;49.782;19.054;2023-06-05T03:48:07;9.90;;;5.15;;
79330;SDS011;68797;49.782;19.054;2023-06-05T03:50:37;6.90;;;4.50;;
79330;SDS011;68797;49.782;19.054;2023-06-05T03:53:04;7.10;;;4.18;;
79330;SDS011;68797;49.782;19.054;2023-06-05T03:58:12;7.75;;;4.15;;
79330;SDS011;68797;49.782;19.054;2023-06-05T04:00:46;8.60;;;4.15;;
79330;SDS011;68797;49.782;19.054;2023-06-05T04:03:17;8.27;;;4.47;;
79330;SDS011;68797;49.782;19.054;2023-06-05T04:05:45;8.15;;;4.32;;
79330;SDS011;68797;49.782;19.054;2023-06-05T04:08:11;8.52;;;4.50;;
79330;SDS011;68797;49.782;19.054;2023-06-05T04:10:38;7.22;;;4.30;;
79330;SDS011;68797;49.782;19.054;2023-06-05T04:13:04;8.23;;;4.32;;
79330;SDS011;68797;49.782;19.054;2023-06-05T04:15:33;7.65;;;4.45;;
79330;SDS011;68797;49.782;19.054;2023-06-05T04:18:01;7.85;;;4.38;;
79330;SDS011;68797;49.782;19.054;2023-06-05T04:22:55;8.65;;;5.18;;
79330;SDS011;68797;49.782;19.054;2023-06-05T04:25:21;8.70;;;5.38;;
79330;SDS011;68797;49.782;19.054;2023-06-05T04:27:49;8.63;;;4.82;;
79330;SDS011;68797;49.782;19.054;2023-06-05T04:30:17;12.02;;;5.15;;
79330;SDS011;68797;49.782;19.054;2023-06-05T04:32:44;11.50;;;5.47;;
79330;SDS011;68797;49.782;19.054;2023-06-05T04:35:19;9.15;;;5.40;;
79330;SDS011;68797;49.782;19.054;2023-06-05T04:37:47;11.00;;;5.47;;
79330;SDS011;68797;49.782;19.054;2023-06-05T04:40:13;9.25;;;5.78;;
79330;SDS011;68797;49.782;19.054;2023-06-05T04:42:41;7.47;;;5.25;;
79330;SDS011;68797;49.782;19.054;2023-06-05T04:45:07;10.18;;;5.38;;
79330;SDS011;68797;49.782;19.054;2023-06-05T04:47:37;7.28;;;4.82;;
79330;SDS011;68797;49.782;19.054;2023-06-05T04:50:04;11.60;;;5.53;;
79330;SDS011;68797;49.782;19.054;2023-06-05T04:52:34;8.55;;;5.03;;
79330;SDS011;68797;49.782;19.054;2023-06-05T04:55:01;9.77;;;5.50;;
79330;SDS011;68797;49.782;19.054;2023-06-05T04:57:30;9.63;;;5.68;;
79330;SDS011;68797;49.782;19.054;2023-06-05T04:59:58;9.95;;;5.57;;
79330;SDS011;68797;49.782;19.054;2023-06-05T05:02:25;9.18;;;5.20;;
79330;SDS011;68797;49.782;19.054;2023-06-05T05:04:53;8.13;;;5.55;;
79330;SDS011;68797;49.782;19.054;2023-06-05T05:07:20;10.00;;;4.82;;
79330;SDS011;68797;49.782;19.054;2023-06-05T05:09:48;9.35;;;5.28;;
79330;SDS011;68797;49.782;19.054;2023-06-05T05:12:15;8.57;;;4.60;;
79330;SDS011;68797;49.782;19.054;2023-06-05T05:14:41;10.85;;;5.53;;
79330;SDS011;68797;49.782;19.054;2023-06-05T05:17:08;7.90;;;5.22;;
79330;SDS011;68797;49.782;19.054;2023-06-05T05:19:35;8.88;;;4.72;;
79330;SDS011;68797;49.782;19.054;2023-06-05T05:22:05;10.65;;;4.47;;
79330;SDS011;68797;49.782;19.054;2023-06-05T05:24:31;8.07;;;4.72;;
79330;SDS011;68797;49.782;19.054;2023-06-05T05:26:59;7.60;;;4.20;;
79330;SDS011;68797;49.782;19.054;2023-06-05T05:29:26;6.60;;;4.47;;
79330;SDS011;68797;49.782;19.054;2023-06-05T05:31:53;7.43;;;4.60;;
79330;SDS011;68797;49.782;19.054;2023-06-05T05:34:20;10.13;;;5.40;;
79330;SDS011;68797;49.782;19.054;2023-06-05T05:36:47;7.30;;;4.82;;
79330;SDS011;68797;49.782;19.054;2023-06-05T05:39:13;7.30;;;4.05;;
79330;SDS011;68797;49.782;19.054;2023-06-05T05:41:41;7.43;;;4.72;;
79330;SDS011;68797;49.782;19.054;2023-06-05T05:44:07;9.88;;;5.88;;
79330;SDS011;68797;49.782;19.054;2023-06-05T05:46:33;6.63;;;4.20;;
79330;SDS011;68797;49.782;19.054;2023-06-05T05:49:00;7.97;;;4.35;;
79330;SDS011;68797;49.782;19.054;2023-06-05T05:51:29;6.43;;;4.15;;
79330;SDS011;68797;49.782;19.054;2023-06-05T05:53:55;11.43;;;4.60;;
79330;SDS011;68797;49.782;19.054;2023-06-05T05:56:22;7.10;;;4.47;;
79330;SDS011;68797;49.782;19.054;2023-06-05T05:58:48;8.35;;;4.60;;
79330;SDS011;68797;49.782;19.054;2023-06-05T06:01:14;8.73;;;4.40;;
79330;SDS011;68797;49.782;19.054;2023-06-05T06:03:41;7.50;;;4.65;;
79330;SDS011;68797;49.782;19.054;2023-06-05T06:06:08;8.20;;;4.50;;
79330;SDS011;68797;49.782;19.054;2023-06-05T06:08:35;7.93;;;4.82;;
79330;SDS011;68797;49.782;19.054;2023-06-05T06:11:02;10.57;;;4.95;;
79330;SDS011;68797;49.782;19.054;2023-06-05T06:13:35;7.90;;;4.63;;
79330;SDS011;68797;49.782;19.054;2023-06-05T06:16:02;7.28;;;4.38;;
79330;SDS011;68797;49.782;19.054;2023-06-05T06:18:28;10.48;;;4.88;;
79330;SDS011;68797;49.782;19.054;2023-06-05T06:20:55;8.07;;;4.75;;
79330;SDS011;68797;49.782;19.054;2023-06-05T06:23:21;9.05;;;4.50;;
79330;SDS011;68797;49.782;19.054;2023-06-05T06:25:48;7.38;;;4.45;;
79330;SDS011;68797;49.782;19.054;2023-06-05T06:28:16;7.10;;;4.38;;
79330;SDS011;68797;49.782;19.054;2023-06-05T06:30:42;6.90;;;3.95;;
79330;SDS011;68797;49.782;19.054;2023-06-05T06:33:09;7.18;;;4.07;;
79330;SDS011;68797;49.782;19.054;2023-06-05T06:35:36;10.15;;;4.53;;
79330;SDS011;68797;49.782;19.054;2023-06-05T06:38:02;7.43;;;5.07;;
79330;SDS011;68797;49.782;19.054;2023-06-05T06:40:29;7.63;;;4.18;;
79330;SDS011;68797;49.782;19.054;2023-06-05T06:42:56;6.70;;;3.75;;
79330;SDS011;68797;49.782;19.054;2023-06-05T06:45:38;7.53;;;3.95;;
79330;SDS011;68797;49.782;19.054;2023-06-05T06:48:08;7.40;;;4.85;;
79330;SDS011;68797;49.782;19.054;2023-06-05T06:50:34;7.07;;;4.00;;
79330;SDS011;68797;49.782;19.054;2023-06-05T06:53:01;5.95;;;4.05;;
79330;SDS011;68797;49.782;19.054;2023-06-05T06:55:30;5.57;;;3.80;;
79330;SDS011;68797;49.782;19.054;2023-06-05T06:57:59;8.13;;;3.90;;
79330;SDS011;68797;49.782;19.054;2023-06-05T07:02:51;9.57;;;4.43;;
79330;SDS011;68797;49.782;19.054;2023-06-05T07:05:18;6.82;;;3.85;;
79330;SDS011;68797;49.782;19.054;2023-06-05T07:07:45;5.05;;;3.58;;
79330;SDS011;68797;49.782;19.054;2023-06-05T07:12:38;6.45;;;3.50;;
79330;SDS011;68797;49.782;19.054;2023-06-05T07:15:04;6.82;;;3.80;;
79330;SDS011;68797;49.782;19.054;2023-06-05T07:19:59;5.63;;;3.65;;
79330;SDS011;68797;49.782;19.054;2023-06-05T07:22:26;20.92;;;5.20;;
79330;SDS011;68797;49.782;19.054;2023-06-05T07:24:54;5.47;;;4.00;;
79330;SDS011;68797;49.782;19.054;2023-06-05T07:27:20;7.40;;;3.47;;
79330;SDS011;68797;49.782;19.054;2023-06-05T07:29:47;6.35;;;3.15;;
79330;SDS011;68797;49.782;19.054;2023-06-05T07:32:13;5.68;;;3.38;;
79330;SDS011;68797;49.782;19.054;2023-06-05T07:34:40;4.40;;;3.13;;
79330;SDS011;68797;49.782;19.054;2023-06-05T07:37:08;6.07;;;2.85;;
79330;SDS011;68797;49.782;19.054;2023-06-05T07:39:35;6.80;;;2.97;;
79330;SDS011;68797;49.782;19.054;2023-06-05T07:42:01;6.30;;;3.00;;
79330;SDS011;68797;49.782;19.054;2023-06-05T07:44:28;10.23;;;3.47;;
79330;SDS011;68797;49.782;19.054;2023-06-05T07:46:54;7.55;;;2.90;;
79330;SDS011;68797;49.782;19.054;2023-06-05T07:49:21;6.45;;;3.30;;
79330;SDS011;68797;49.782;19.054;2023-06-05T07:51:49;5.88;;;3.17;;
79330;SDS011;68797;49.782;19.054;2023-06-05T07:54:17;4.90;;;3.33;;
79330;SDS011;68797;49.782;19.054;2023-06-05T07:56:45;8.65;;;3.53;;
79330;SDS011;68797;49.782;19.054;2023-06-05T07:59:15;11.48;;;3.95;;
79330;SDS011;68797;49.782;19.054;2023-06-05T08:01:42;9.55;;;4.22;;
79330;SDS011;68797;49.782;19.054;2023-06-05T08:06:37;8.40;;;4.22;;
79330;SDS011;68797;49.782;19.054;2023-06-05T08:09:04;6.90;;;3.33;;
79330;SDS011;68797;49.782;19.054;2023-06-05T08:11:32;6.97;;;3.78;;
79330;SDS011;68797;49.782;19.054;2023-06-05T08:13:58;7.38;;;3.75;;
79330;SDS011;68797;49.782;19.054;2023-06-05T08:16:24;5.80;;;3.15;;
79330;SDS011;68797;49.782;19.054;2023-06-05T08:18:50;7.32;;;3.58;;
79330;SDS011;68797;49.782;19.054;2023-06-05T08:21:17;7.18;;;4.18;;
79330;SDS011;68797;49.782;19.054;2023-06-05T08:23:43;5.78;;;3.30;;
79330;SDS011;68797;49.782;19.054;2023-06-05T08:26:09;6.38;;;3.85;;
79330;SDS011;68797;49.782;19.054;2023-06-05T08:28:38;5.47;;;3.15;;
79330;SDS011;68797;49.782;19.054;2023-06-05T08:31:05;4.93;;;3.03;;
79330;SDS011;68797;49.782;19.054;2023-06-05T08:33:36;6.97;;;3.08;;
79330;SDS011;68797;49.782;19.054;2023-06-05T08:36:03;6.15;;;3.20;;
79330;SDS011;68797;49.782;19.054;2023-06-05T08:38:31;10.63;;;2.88;;
79330;SDS011;68797;49.782;19.054;2023-06-05T08:41:05;7.32;;;3.35;;
79330;SDS011;68797;49.782;19.054;2023-06-05T08:43:36;6.07;;;2.92;;
79330;SDS011;68797;49.782;19.054;2023-06-05T08:46:04;5.43;;;2.97;;
79330;SDS011;68797;49.782;19.054;2023-06-05T08:48:40;6.95;;;3.17;;
79330;SDS011;68797;49.782;19.054;2023-06-05T08:51:12;5.90;;;2.97;;
79330;SDS011;68797;49.782;19.054;2023-06-05T08:53:51;7.60;;;3.30;;
79330;SDS011;68797;49.782;19.054;2023-06-05T08:56:23;4.82;;;2.80;;
79330;SDS011;68797;49.782;19.054;2023-06-05T08:58:52;4.43;;;3.60;;
79330;SDS011;68797;49.782;19.054;2023-06-05T09:01:20;5.82;;;2.75;;
79330;SDS011;68797;49.782;19.054;2023-06-05T09:06:13;5.05;;;2.50;;
79330;SDS011;68797;49.782;19.054;2023-06-05T09:11:19;5.47;;;2.67;;
79330;SDS011;68797;49.782;19.054;2023-06-05T09:13:47;6.55;;;2.88;;
79330;SDS011;68797;49.782;19.054;2023-06-05T09:18:55;6.78;;;3.47;;
79330;SDS011;68797;49.782;19.054;2023-06-05T09:21:24;6.95;;;2.97;;
79330;SDS011;68797;49.782;19.054;2023-06-05T09:24:12;8.13;;;3.55;;
79330;SDS011;68797;49.782;19.054;2023-06-05T09:27:02;9.40;;;3.35;;
79330;SDS011;68797;49.782;19.054;2023-06-05T09:29:32;5.18;;;3.05;;
79330;SDS011;68797;49.782;19.054;2023-06-05T09:34:33;6.78;;;3.25;;
79330;SDS011;68797;49.782;19.054;2023-06-05T09:37:04;5.60;;;3.50;;
79330;SDS011;68797;49.782;19.054;2023-06-05T09:39:33;7.28;;;3.20;;
79330;SDS011;68797;49.782;19.054;2023-06-05T09:42:04;4.72;;;2.42;;
79330;SDS011;68797;49.782;19.054;2023-06-05T09:44:32;4.30;;;2.85;;
79330;SDS011;68797;49.782;19.054;2023-06-05T09:49:31;4.65;;;2.85;;
79330;SDS011;68797;49.782;19.054;2023-06-05T09:52:11;6.13;;;3.33;;
79330;SDS011;68797;49.782;19.054;2023-06-05T09:54:40;6.35;;;3.05;;
79330;SDS011;68797;49.782;19.054;2023-06-05T09:57:10;8.55;;;3.25;;
79330;SDS011;68797;49.782;19.054;2023-06-05T09:59:44;4.07;;;2.83;;
79330;SDS011;68797;49.782;19.054;2023-06-05T10:02:22;8.73;;;3.13;;
79330;SDS011;68797;49.782;19.054;2023-06-05T10:04:52;3.22;;;2.53;;
79330;SDS011;68797;49.782;19.054;2023-06-05T10:07:25;5.78;;;2.60;;
79330;SDS011;68797;49.782;19.054;2023-06-05T10:09:53;4.78;;;2.85;;
79330;SDS011;68797;49.782;19.054;2023-06-05T10:14:49;5.35;;;2.90;;
79330;SDS011;68797;49.782;19.054;2023-06-05T10:17:16;4.90;;;3.08;;
79330;SDS011;68797;49.782;19.054;2023-06-05T10:19:43;5.93;;;2.85;;
79330;SDS011;68797;49.782;19.054;2023-06-05T10:22:13;5.53;;;3.13;;
79330;SDS011;68797;49.782;19.054;2023-06-05T10:24:56;11.05;;;2.60;;
79330;SDS011;68797;49.782;19.054;2023-06-05T10:30:19;6.70;;;3.33;;
79330;SDS011;68797;49.782;19.054;2023-06-05T10:32:53;6.88;;;2.92;;
79330;SDS011;68797;49.782;19.054;2023-06-05T10:35:45;6.13;;;3.08;;
79330;SDS011;68797;49.782;19.054;2023-06-05T10:38:28;6.43;;;3.95;;
79330;SDS011;68797;49.782;19.054;2023-06-05T10:40:57;5.93;;;3.35;;
79330;SDS011;68797;49.782;19.054;2023-06-05T10:43:25;5.00;;;2.85;;
79330;SDS011;68797;49.782;19.054;2023-06-05T10:45:57;7.05;;;3.40;;
79330;SDS011;68797;49.782;19.054;2023-06-05T10:51:39;6.68;;;3.63;;
79330;SDS011;68797;49.782;19.054;2023-06-05T10:54:53;7.25;;;2.90;;
79330;SDS011;68797;49.782;19.054;2023-06-05T10:57:04;4.63;;;2.80;;
79330;SDS011;68797;49.782;19.054;2023-06-05T10:59:36;5.10;;;2.97;;
79330;SDS011;68797;49.782;19.054;2023-06-05T11:07:22;5.13;;;2.95;;
79330;SDS011;68797;49.782;19.054;2023-06-05T11:10:03;5.68;;;3.05;;
79330;SDS011;68797;49.782;19.054;2023-06-05T11:15:06;5.75;;;2.80;;
79330;SDS011;68797;49.782;19.054;2023-06-05T11:17:38;6.78;;;3.30;;
79330;SDS011;68797;49.782;19.054;2023-06-05T11:20:06;4.65;;;3.35;;
79330;SDS011;68797;49.782;19.054;2023-06-05T11:25:25;5.80;;;3.15;;
79330;SDS011;68797;49.782;19.054;2023-06-05T11:30:28;6.38;;;2.90;;
79330;SDS011;68797;49.782;19.054;2023-06-05T11:33:07;25.35;;;3.80;;
79330;SDS011;68797;49.782;19.054;2023-06-05T11:35:35;6.90;;;3.42;;
79330;SDS011;68797;49.782;19.054;2023-06-05T11:40:42;4.97;;;3.22;;
79330;SDS011;68797;49.782;19.054;2023-06-05T11:43:10;5.90;;;3.42;;
79330;SDS011;68797;49.782;19.054;2023-06-05T11:45:38;10.00;;;4.45;;
79330;SDS011;68797;49.782;19.054;2023-06-05T11:48:06;9.18;;;3.13;;
79330;SDS011;68797;49.782;19.054;2023-06-05T11:50:34;8.43;;;3.72;;
79330;SDS011;68797;49.782;19.054;2023-06-05T11:55:34;9.25;;;3.30;;
79330;SDS011;68797;49.782;19.054;2023-06-05T11:58:24;4.47;;;3.10;;
79330;SDS011;68797;49.782;19.054;2023-06-05T12:00:51;5.88;;;2.78;;
79330;SDS011;68797;49.782;19.054;2023-06-05T12:03:29;5.18;;;3.50;;
79330;SDS011;68797;49.782;19.054;2023-06-05T12:05:55;6.50;;;3.65;;
79330;SDS011;68797;49.782;19.054;2023-06-05T12:08:24;9.15;;;3.95;;
79330;SDS011;68797;49.782;19.054;2023-06-05T12:10:52;6.20;;;3.40;;
79330;SDS011;68797;49.782;19.054;2023-06-05T12:13:19;6.03;;;3.58;;
79330;SDS011;68797;49.782;19.054;2023-06-05T12:18:34;24.48;;;6.00;;
79330;SDS011;68797;49.782;19.054;2023-06-05T12:21:01;6.50;;;3.63;;
79330;SDS011;68797;49.782;19.054;2023-06-05T12:23:28;7.70;;;3.50;;
79330;SDS011;68797;49.782;19.054;2023-06-05T12:26:02;6.47;;;4.15;;
79330;SDS011;68797;49.782;19.054;2023-06-05T12:28:29;8.85;;;5.05;;
79330;SDS011;68797;49.782;19.054;2023-06-05T12:30:57;5.95;;;3.88;;
79330;SDS011;68797;49.782;19.054;2023-06-05T12:33:24;7.63;;;4.55;;
79330;SDS011;68797;49.782;19.054;2023-06-05T12:36:04;5.45;;;3.95;;
79330;SDS011;68797;49.782;19.054;2023-06-05T12:38:38;8.52;;;4.85;;
79330;SDS011;68797;49.782;19.054;2023-06-05T12:41:09;5.10;;;3.53;;
79330;SDS011;68797;49.782;19.054;2023-06-05T12:43:37;7.25;;;3.78;;
79330;SDS011;68797;49.782;19.054;2023-06-05T12:48:31;6.82;;;4.22;;
79330;SDS011;68797;49.782;19.054;2023-06-05T12:51:00;5.28;;;3.00;;
79330;SDS011;68797;49.782;19.054;2023-06-05T12:53:27;6.65;;;3.25;;
79330;SDS011;68797;49.782;19.054;2023-06-05T12:55:54;10.88;;;4.15;;
79330;SDS011;68797;49.782;19.054;2023-06-05T12:58:20;6.25;;;3.83;;
79330;SDS011;68797;49.782;19.054;2023-06-05T13:00:48;4.30;;;3.53;;
79330;SDS011;68797;49.782;19.054;2023-06-05T13:03:14;7.40;;;3.33;;
79330;SDS011;68797;49.782;19.054;2023-06-05T13:05:42;4.90;;;3.30;;
79330;SDS011;68797;49.782;19.054;2023-06-05T13:10:35;4.45;;;3.33;;
79330;SDS011;68797;49.782;19.054;2023-06-05T13:13:02;5.35;;;3.60;;
79330;SDS011;68797;49.782;19.054;2023-06-05T13:15:28;7.22;;;3.72;;
79330;SDS011;68797;49.782;19.054;2023-06-05T13:17:55;6.03;;;3.85;;
79330;SDS011;68797;49.782;19.054;2023-06-05T13:20:21;6.65;;;3.60;;
79330;SDS011;68797;49.782;19.054;2023-06-05T13:22:48;5.45;;;3.58;;
79330;SDS011;68797;49.782;19.054;2023-06-05T13:25:15;7.20;;;3.10;;
79330;SDS011;68797;49.782;19.054;2023-06-05T13:30:12;8.90;;;3.58;;
79330;SDS011;68797;49.782;19.054;2023-06-05T13:32:38;6.55;;;3.88;;
79330;SDS011;68797;49.782;19.054;2023-06-05T13:35:05;6.40;;;3.25;;
79330;SDS011;68797;49.782;19.054;2023-06-05T13:37:34;5.57;;;3.75;;
79330;SDS011;68797;49.782;19.054;2023-06-05T13:40:00;6.35;;;3.55;;
79330;SDS011;68797;49.782;19.054;2023-06-05T13:42:29;9.15;;;3.83;;
79330;SDS011;68797;49.782;19.054;2023-06-05T13:44:56;5.78;;;3.67;;
79330;SDS011;68797;49.782;19.054;2023-06-05T13:47:22;4.90;;;3.35;;
79330;SDS011;68797;49.782;19.054;2023-06-05T13:49:48;5.35;;;3.17;;
79330;SDS011;68797;49.782;19.054;2023-06-05T13:54:42;9.30;;;3.40;;
79330;SDS011;68797;49.782;19.054;2023-06-05T13:57:09;5.90;;;3.47;;
79330;SDS011;68797;49.782;19.054;2023-06-05T14:02:02;6.88;;;3.35;;
79330;SDS011;68797;49.782;19.054;2023-06-05T14:04:29;4.57;;;3.08;;
79330;SDS011;68797;49.782;19.054;2023-06-05T14:06:55;5.43;;;3.25;;
79330;SDS011;68797;49.782;19.054;2023-06-05T14:09:24;5.85;;;3.25;;
79330;SDS011;68797;49.782;19.054;2023-06-05T14:11:51;8.82;;;3.65;;
79330;SDS011;68797;49.782;19.054;2023-06-05T14:14:17;5.28;;;4.03;;
79330;SDS011;68797;49.782;19.054;2023-06-05T14:16:44;5.95;;;3.55;;
79330;SDS011;68797;49.782;19.054;2023-06-05T14:19:11;6.15;;;3.55;;
79330;SDS011;68797;49.782;19.054;2023-06-05T14:21:37;7.40;;;3.70;;
79330;SDS011;68797;49.782;19.054;2023-06-05T14:24:08;6.57;;;3.15;;
79330;SDS011;68797;49.782;19.054;2023-06-05T14:29:02;7.55;;;3.60;;
79330;SDS011;68797;49.782;19.054;2023-06-05T14:31:28;6.47;;;3.67;;
79330;SDS011;68797;49.782;19.054;2023-06-05T14:36:21;6.57;;;3.90;;
79330;SDS011;68797;49.782;19.054;2023-06-05T14:38:47;4.90;;;3.42;;
79330;SDS011;68797;49.782;19.054;2023-06-05T14:41:13;7.30;;;3.50;;
79330;SDS011;68797;49.782;19.054;2023-06-05T14:43:40;9.48;;;3.47;;
79330;SDS011;68797;49.782;19.054;2023-06-05T14:46:06;8.30;;;3.95;;
79330;SDS011;68797;49.782;19.054;2023-06-05T14:48:32;4.85;;;3.25;;
79330;SDS011;68797;49.782;19.054;2023-06-05T14:50:58;7.38;;;3.67;;
79330;SDS011;68797;49.782;19.054;2023-06-05T14:55:53;7.00;;;3.47;;
79330;SDS011;68797;49.782;19.054;2023-06-05T14:58:19;6.43;;;3.67;;
79330;SDS011;68797;49.782;19.054;2023-06-05T15:00:45;5.78;;;3.47;;
79330;SDS011;68797;49.782;19.054;2023-06-05T15:03:12;5.35;;;3.47;;
79330;SDS011;68797;49.782;19.054;2023-06-05T15:05:38;8.63;;;4.10;;
79330;SDS011;68797;49.782;19.054;2023-06-05T15:10:32;9.70;;;3.30;;
79330;SDS011;68797;49.782;19.054;2023-06-05T15:12:58;5.47;;;3.40;;
79330;SDS011;68797;49.782;19.054;2023-06-05T15:15:25;7.60;;;4.10;;
79330;SDS011;68797;49.782;19.054;2023-06-05T15:17:51;5.75;;;3.70;;
79330;SDS011;68797;49.782;19.054;2023-06-05T15:20:18;5.90;;;3.55;;
79330;SDS011;68797;49.782;19.054;2023-06-05T15:22:45;5.10;;;3.30;;
79330;SDS011;68797;49.782;19.054;2023-06-05T15:25:12;5.05;;;3.55;;
79330;SDS011;68797;49.782;19.054;2023-06-05T15:27:39;6.30;;;3.72;;
79330;SDS011;68797;49.782;19.054;2023-06-05T15:30:05;6.93;;;4.07;;
79330;SDS011;68797;49.782;19.054;2023-06-05T15:32:33;7.97;;;3.30;;
79330;SDS011;68797;49.782;19.054;2023-06-05T15:34:59;7.00;;;3.83;;
79330;SDS011;68797;49.782;19.054;2023-06-05T15:37:26;5.82;;;3.30;;
79330;SDS011;68797;49.782;19.054;2023-06-05T15:39:52;7.45;;;3.60;;
79330;SDS011;68797;49.782;19.054;2023-06-05T15:42:26;9.32;;;4.03;;
79330;SDS011;68797;49.782;19.054;2023-06-05T15:45:04;6.97;;;3.63;;
79330;SDS011;68797;49.782;19.054;2023-06-05T15:47:33;7.93;;;4.15;;
79330;SDS011;68797;49.782;19.054;2023-06-05T15:50:02;6.03;;;3.83;;
79330;SDS011;68797;49.782;19.054;2023-06-05T15:52:33;7.13;;;3.92;;
79330;SDS011;68797;49.782;19.054;2023-06-05T15:55:00;6.20;;;3.78;;
79330;SDS011;68797;49.782;19.054;2023-06-05T15:57:27;7.40;;;3.50;;
79330;SDS011;68797;49.782;19.054;2023-06-05T15:59:53;5.53;;;3.45;;
79330;SDS011;68797;49.782;19.054;2023-06-05T16:02:21;11.85;;;4.80;;
79330;SDS011;68797;49.782;19.054;2023-06-05T16:04:47;8.48;;;3.97;;
79330;SDS011;68797;49.782;19.054;2023-06-05T16:07:15;12.43;;;4.45;;
79330;SDS011;68797;49.782;19.054;2023-06-05T16:09:44;11.27;;;4.75;;